sensor_id;sensor_type;location;lat;lon;timestamp;P1;durP1;ratioP1;P2;durP2;ratioP2
29320;SDS011;16323;51.130;6.612;2023-04-24T00:01:46;0.55;;;0.32;;
29320;SDS011;16323;51.130;6.612;2023-04-24T00:04:14;0.10;;;0.10;;
29320;SDS011;16323;51.130;6.612;2023-04-24T00:06:42;0.20;;;0.20;;
29320;SDS011;16323;51.130;6.612;2023-04-24T00:09:09;0.35;;;0.25;;
29320;SDS011;16323;51.130;6.612;2023-04-24T00:11:36;0.30;;;0.30;;
29320;SDS011;16323;51.130;6.612;2023-04-24T00:14:03;0.10;;;0.10;;
29320;SDS011;16323;51.130;6.612;2023-04-24T00:16:30;0.55;;;0.30;;
29320;SDS011;16323;51.130;6.612;2023-04-24T00:18:56;0.10;;;0.10;;
29320;SDS011;16323;51.130;6.612;2023-04-24T00:21:24;0.15;;;0.13;;
29320;SDS011;16323;51.130;6.612;2023-04-24T00:23:51;0.10;;;0.10;;
29320;SDS011;16323;51.130;6.612;2023-04-24T00:26:19;0.22;;;0.20;;
29320;SDS011;16323;51.130;6.612;2023-04-24T00:28:45;0.10;;;0.10;;
29320;SDS011;16323;51.130;6.612;2023-04-24T00:31:12;0.20;;;0.20;;
29320;SDS011;16323;51.130;6.612;2023-04-24T00:33:39;0.13;;;0.13;;
29320;SDS011;16323;51.130;6.612;2023-04-24T00:36:06;0.20;;;0.20;;
29320;SDS011;16323;51.130;6.612;2023-04-24T00:38:34;0.20;;;0.20;;
29320;SDS011;16323;51.130;6.612;2023-04-24T00:41:01;0.20;;;0.20;;
29320;SDS011;16323;51.130;6.612;2023-04-24T00:43:28;1.08;;;0.20;;
29320;SDS011;16323;51.130;6.612;2023-04-24T00:45:55;0.20;;;0.20;;
29320;SDS011;16323;51.130;6.612;2023-04-24T00:48:22;0.28;;;0.25;;
29320;SDS011;16323;51.130;6.612;2023-04-24T00:50:49;0.20;;;0.20;;
29320;SDS011;16323;51.130;6.612;2023-04-24T00:53:16;0.30;;;0.30;;
29320;SDS011;16323;51.130;6.612;2023-04-24T00:55:44;0.20;;;0.20;;
29320;SDS011;16323;51.130;6.612;2023-04-24T00:58:11;0.15;;;0.15;;
29320;SDS011;16323;51.130;6.612;2023-04-24T01:00:39;1.23;;;0.40;;
29320;SDS011;16323;51.130;6.612;2023-04-24T01:03:05;0.38;;;0.38;;
29320;SDS011;16323;51.130;6.612;2023-04-24T01:05:33;1.35;;;0.20;;
29320;SDS011;16323;51.130;6.612;2023-04-24T01:08:00;0.52;;;0.40;;
29320;SDS011;16323;51.130;6.612;2023-04-24T01:10:28;0.60;;;0.40;;
29320;SDS011;16323;51.130;6.612;2023-04-24T01:12:59;0.43;;;0.20;;
29320;SDS011;16323;51.130;6.612;2023-04-24T01:15:26;0.38;;;0.38;;
29320;SDS011;16323;51.130;6.612;2023-04-24T01:17:52;0.20;;;0.20;;
29320;SDS011;16323;51.130;6.612;2023-04-24T01:20:19;0.40;;;0.40;;
29320;SDS011;16323;51.130;6.612;2023-04-24T01:22:48;0.60;;;0.40;;
29320;SDS011;16323;51.130;6.612;2023-04-24T01:25:15;0.75;;;0.40;;
29320;SDS011;16323;51.130;6.612;2023-04-24T01:27:42;0.50;;;0.50;;
29320;SDS011;16323;51.130;6.612;2023-04-24T01:30:09;0.80;;;0.60;;
29320;SDS011;16323;51.130;6.612;2023-04-24T01:32:37;0.30;;;0.30;;
29320;SDS011;16323;51.130;6.612;2023-04-24T01:35:04;0.98;;;0.40;;
29320;SDS011;16323;51.130;6.612;2023-04-24T01:37:32;1.58;;;0.50;;
29320;SDS011;16323;51.130;6.612;2023-04-24T01:40:00;0.82;;;0.57;;
29320;SDS011;16323;51.130;6.612;2023-04-24T01:42:28;1.35;;;0.40;;
29320;SDS011;16323;51.130;6.612;2023-04-24T01:44:55;1.27;;;0.50;;
29320;SDS011;16323;51.130;6.612;2023-04-24T01:47:23;0.50;;;0.50;;
29320;SDS011;16323;51.130;6.612;2023-04-24T01:49:50;1.00;;;0.60;;
29320;SDS011;16323;51.130;6.612;2023-04-24T01:52:17;0.77;;;0.70;;
29320;SDS011;16323;51.130;6.612;2023-04-24T01:54:44;0.90;;;0.60;;
29320;SDS011;16323;51.130;6.612;2023-04-24T01:57:12;1.15;;;0.82;;
29320;SDS011;16323;51.130;6.612;2023-04-24T01:59:40;0.60;;;0.60;;
29320;SDS011;16323;51.130;6.612;2023-04-24T02:02:06;0.88;;;0.75;;
29320;SDS011;16323;51.130;6.612;2023-04-24T02:04:34;1.27;;;0.57;;
29320;SDS011;16323;51.130;6.612;2023-04-24T02:07:00;2.25;;;0.82;;
29320;SDS011;16323;51.130;6.612;2023-04-24T02:09:27;1.02;;;0.77;;
29320;SDS011;16323;51.130;6.612;2023-04-24T02:11:54;0.90;;;0.60;;
29320;SDS011;16323;51.130;6.612;2023-04-24T02:14:22;0.70;;;0.50;;
29320;SDS011;16323;51.130;6.612;2023-04-24T02:16:49;1.25;;;0.75;;
29320;SDS011;16323;51.130;6.612;2023-04-24T02:19:16;0.88;;;0.68;;
29320;SDS011;16323;51.130;6.612;2023-04-24T02:21:42;2.42;;;0.80;;
29320;SDS011;16323;51.130;6.612;2023-04-24T02:24:09;1.42;;;0.88;;
29320;SDS011;16323;51.130;6.612;2023-04-24T02:26:36;0.80;;;0.68;;
29320;SDS011;16323;51.130;6.612;2023-04-24T02:29:03;0.93;;;0.60;;
29320;SDS011;16323;51.130;6.612;2023-04-24T02:31:31;0.70;;;0.70;;
29320;SDS011;16323;51.130;6.612;2023-04-24T02:33:58;1.10;;;0.75;;
29320;SDS011;16323;51.130;6.612;2023-04-24T02:36:25;1.58;;;0.88;;
29320;SDS011;16323;51.130;6.612;2023-04-24T02:38:52;2.05;;;1.20;;
29320;SDS011;16323;51.130;6.612;2023-04-24T02:41:19;1.02;;;0.80;;
29320;SDS011;16323;51.130;6.612;2023-04-24T02:43:46;1.30;;;1.00;;
29320;SDS011;16323;51.130;6.612;2023-04-24T02:46:12;0.90;;;0.85;;
29320;SDS011;16323;51.130;6.612;2023-04-24T02:48:41;1.30;;;0.90;;
29320;SDS011;16323;51.130;6.612;2023-04-24T02:51:07;1.52;;;0.80;;
29320;SDS011;16323;51.130;6.612;2023-04-24T02:53:34;0.85;;;0.73;;
29320;SDS011;16323;51.130;6.612;2023-04-24T02:56:01;0.98;;;0.77;;
29320;SDS011;16323;51.130;6.612;2023-04-24T02:58:28;1.90;;;0.90;;
29320;SDS011;16323;51.130;6.612;2023-04-24T03:00:55;1.15;;;0.85;;
29320;SDS011;16323;51.130;6.612;2023-04-24T03:03:22;1.27;;;0.90;;
29320;SDS011;16323;51.130;6.612;2023-04-24T03:05:51;1.75;;;0.93;;
29320;SDS011;16323;51.130;6.612;2023-04-24T03:08:18;1.75;;;0.70;;
29320;SDS011;16323;51.130;6.612;2023-04-24T03:10:45;2.28;;;1.17;;
29320;SDS011;16323;51.130;6.612;2023-04-24T03:13:12;1.23;;;0.93;;
29320;SDS011;16323;51.130;6.612;2023-04-24T03:15:39;1.33;;;0.88;;
29320;SDS011;16323;51.130;6.612;2023-04-24T03:18:05;1.67;;;0.85;;
29320;SDS011;16323;51.130;6.612;2023-04-24T03:20:32;1.02;;;0.88;;
29320;SDS011;16323;51.130;6.612;2023-04-24T03:23:00;1.42;;;1.10;;
29320;SDS011;16323;51.130;6.612;2023-04-24T03:25:28;3.15;;;1.10;;
29320;SDS011;16323;51.130;6.612;2023-04-24T03:27:54;0.80;;;0.80;;
29320;SDS011;16323;51.130;6.612;2023-04-24T03:30:21;0.98;;;0.85;;
29320;SDS011;16323;51.130;6.612;2023-04-24T03:32:48;1.02;;;0.88;;
29320;SDS011;16323;51.130;6.612;2023-04-24T03:35:14;1.58;;;1.10;;
29320;SDS011;16323;51.130;6.612;2023-04-24T03:37:41;2.25;;;1.20;;
29320;SDS011;16323;51.130;6.612;2023-04-24T03:40:10;1.05;;;0.80;;
29320;SDS011;16323;51.130;6.612;2023-04-24T03:42:37;1.90;;;0.98;;
29320;SDS011;16323;51.130;6.612;2023-04-24T03:45:04;1.40;;;0.90;;
29320;SDS011;16323;51.130;6.612;2023-04-24T03:47:31;1.08;;;0.85;;
29320;SDS011;16323;51.130;6.612;2023-04-24T03:49:58;5.13;;;0.93;;
29320;SDS011;16323;51.130;6.612;2023-04-24T03:52:25;1.95;;;1.10;;
29320;SDS011;16323;51.130;6.612;2023-04-24T03:54:52;1.20;;;1.00;;
29320;SDS011;16323;51.130;6.612;2023-04-24T03:57:20;2.10;;;1.00;;
29320;SDS011;16323;51.130;6.612;2023-04-24T03:59:47;1.53;;;1.10;;
29320;SDS011;16323;51.130;6.612;2023-04-24T04:02:13;1.23;;;0.90;;
29320;SDS011;16323;51.130;6.612;2023-04-24T04:04:40;0.98;;;0.77;;
29320;SDS011;16323;51.130;6.612;2023-04-24T04:07:07;1.70;;;1.20;;
29320;SDS011;16323;51.130;6.612;2023-04-24T04:09:34;1.88;;;1.10;;
29320;SDS011;16323;51.130;6.612;2023-04-24T04:12:00;1.50;;;1.20;;
29320;SDS011;16323;51.130;6.612;2023-04-24T04:14:29;0.90;;;0.82;;
29320;SDS011;16323;51.130;6.612;2023-04-24T04:16:56;1.33;;;1.00;;
29320;SDS011;16323;51.130;6.612;2023-04-24T04:19:22;2.58;;;1.33;;
29320;SDS011;16323;51.130;6.612;2023-04-24T04:21:49;1.70;;;1.00;;
29320;SDS011;16323;51.130;6.612;2023-04-24T04:24:18;1.95;;;0.90;;
29320;SDS011;16323;51.130;6.612;2023-04-24T04:26:45;2.05;;;0.90;;
29320;SDS011;16323;51.130;6.612;2023-04-24T04:29:12;1.45;;;0.93;;
29320;SDS011;16323;51.130;6.612;2023-04-24T04:31:41;3.17;;;1.00;;
29320;SDS011;16323;51.130;6.612;2023-04-24T04:34:08;1.38;;;1.00;;
29320;SDS011;16323;51.130;6.612;2023-04-24T04:36:35;1.70;;;1.00;;
29320;SDS011;16323;51.130;6.612;2023-04-24T04:39:05;1.48;;;1.10;;
29320;SDS011;16323;51.130;6.612;2023-04-24T04:41:31;1.58;;;0.85;;
29320;SDS011;16323;51.130;6.612;2023-04-24T04:44:00;1.40;;;0.90;;
29320;SDS011;16323;51.130;6.612;2023-04-24T04:46:29;1.95;;;0.98;;
29320;SDS011;16323;51.130;6.612;2023-04-24T04:48:58;1.10;;;0.93;;
29320;SDS011;16323;51.130;6.612;2023-04-24T04:51:26;2.78;;;1.17;;
29320;SDS011;16323;51.130;6.612;2023-04-24T04:53:53;1.90;;;0.80;;
29320;SDS011;16323;51.130;6.612;2023-04-24T04:56:20;2.80;;;1.10;;
29320;SDS011;16323;51.130;6.612;2023-04-24T04:58:46;1.20;;;1.00;;
29320;SDS011;16323;51.130;6.612;2023-04-24T05:01:14;2.33;;;1.00;;
29320;SDS011;16323;51.130;6.612;2023-04-24T05:03:41;1.00;;;0.90;;
29320;SDS011;16323;51.130;6.612;2023-04-24T05:06:09;1.65;;;1.20;;
29320;SDS011;16323;51.130;6.612;2023-04-24T05:08:35;1.60;;;1.10;;
29320;SDS011;16323;51.130;6.612;2023-04-24T05:11:02;2.30;;;0.95;;
29320;SDS011;16323;51.130;6.612;2023-04-24T05:13:29;1.55;;;0.90;;
29320;SDS011;16323;51.130;6.612;2023-04-24T05:15:57;1.98;;;1.00;;
29320;SDS011;16323;51.130;6.612;2023-04-24T05:18:24;0.77;;;0.73;;
29320;SDS011;16323;51.130;6.612;2023-04-24T05:20:51;1.88;;;1.20;;
29320;SDS011;16323;51.130;6.612;2023-04-24T05:23:19;1.00;;;0.73;;
29320;SDS011;16323;51.130;6.612;2023-04-24T05:25:45;1.08;;;0.90;;
29320;SDS011;16323;51.130;6.612;2023-04-24T05:28:12;2.05;;;1.13;;
29320;SDS011;16323;51.130;6.612;2023-04-24T05:30:40;1.17;;;0.90;;
29320;SDS011;16323;51.130;6.612;2023-04-24T05:33:07;1.00;;;0.80;;
29320;SDS011;16323;51.130;6.612;2023-04-24T05:35:34;1.85;;;1.10;;
29320;SDS011;16323;51.130;6.612;2023-04-24T05:38:01;0.68;;;0.68;;
29320;SDS011;16323;51.130;6.612;2023-04-24T05:40:29;1.30;;;0.90;;
29320;SDS011;16323;51.130;6.612;2023-04-24T05:42:56;1.42;;;0.90;;
29320;SDS011;16323;51.130;6.612;2023-04-24T05:45:23;1.17;;;0.95;;
29320;SDS011;16323;51.130;6.612;2023-04-24T05:47:50;2.92;;;1.20;;
29320;SDS011;16323;51.130;6.612;2023-04-24T05:50:17;2.50;;;1.02;;
29320;SDS011;16323;51.130;6.612;2023-04-24T05:52:44;1.88;;;0.93;;
29320;SDS011;16323;51.130;6.612;2023-04-24T05:55:11;1.77;;;1.10;;
29320;SDS011;16323;51.130;6.612;2023-04-24T05:57:39;1.17;;;0.98;;
29320;SDS011;16323;51.130;6.612;2023-04-24T06:00:07;1.40;;;1.05;;
29320;SDS011;16323;51.130;6.612;2023-04-24T06:02:37;0.98;;;0.82;;
29320;SDS011;16323;51.130;6.612;2023-04-24T06:05:04;0.70;;;0.70;;
29320;SDS011;16323;51.130;6.612;2023-04-24T06:07:31;0.73;;;0.73;;
29320;SDS011;16323;51.130;6.612;2023-04-24T06:09:57;0.80;;;0.70;;
29320;SDS011;16323;51.130;6.612;2023-04-24T06:12:25;1.25;;;0.70;;
29320;SDS011;16323;51.130;6.612;2023-04-24T06:14:54;1.17;;;0.70;;
29320;SDS011;16323;51.130;6.612;2023-04-24T06:17:21;1.90;;;1.00;;
29320;SDS011;16323;51.130;6.612;2023-04-24T06:19:48;1.23;;;0.70;;
29320;SDS011;16323;51.130;6.612;2023-04-24T06:22:14;0.73;;;0.70;;
29320;SDS011;16323;51.130;6.612;2023-04-24T06:24:41;1.08;;;0.65;;
29320;SDS011;16323;51.130;6.612;2023-04-24T06:27:08;0.65;;;0.63;;
29320;SDS011;16323;51.130;6.612;2023-04-24T06:29:35;1.05;;;0.73;;
29320;SDS011;16323;51.130;6.612;2023-04-24T06:32:04;1.17;;;0.70;;
29320;SDS011;16323;51.130;6.612;2023-04-24T06:34:31;0.85;;;0.70;;
29320;SDS011;16323;51.130;6.612;2023-04-24T06:36:59;0.57;;;0.57;;
29320;SDS011;16323;51.130;6.612;2023-04-24T06:39:26;1.15;;;0.77;;
29320;SDS011;16323;51.130;6.612;2023-04-24T06:41:52;1.13;;;0.75;;
29320;SDS011;16323;51.130;6.612;2023-04-24T06:44:19;0.77;;;0.52;;
29320;SDS011;16323;51.130;6.612;2023-04-24T06:46:46;0.63;;;0.63;;
29320;SDS011;16323;51.130;6.612;2023-04-24T06:49:14;0.50;;;0.50;;
29320;SDS011;16323;51.130;6.612;2023-04-24T06:51:41;1.98;;;0.60;;
29320;SDS011;16323;51.130;6.612;2023-04-24T06:54:08;1.13;;;0.68;;
29320;SDS011;16323;51.130;6.612;2023-04-24T06:56:34;0.65;;;0.60;;
29320;SDS011;16323;51.130;6.612;2023-04-24T06:59:01;1.33;;;0.68;;
29320;SDS011;16323;51.130;6.612;2023-04-24T07:01:28;1.00;;;0.70;;
29320;SDS011;16323;51.130;6.612;2023-04-24T07:03:55;1.13;;;0.60;;
29320;SDS011;16323;51.130;6.612;2023-04-24T07:06:23;1.05;;;0.60;;
29320;SDS011;16323;51.130;6.612;2023-04-24T07:08:50;0.82;;;0.50;;
29320;SDS011;16323;51.130;6.612;2023-04-24T07:11:17;1.20;;;0.30;;
29320;SDS011;16323;51.130;6.612;2023-04-24T07:13:45;0.68;;;0.68;;
29320;SDS011;16323;51.130;6.612;2023-04-24T07:16:11;0.70;;;0.47;;
29320;SDS011;16323;51.130;6.612;2023-04-24T07:18:38;0.73;;;0.40;;
29320;SDS011;16323;51.130;6.612;2023-04-24T07:21:05;0.50;;;0.50;;
29320;SDS011;16323;51.130;6.612;2023-04-24T07:23:33;0.70;;;0.50;;
29320;SDS011;16323;51.130;6.612;2023-04-24T07:26:00;1.23;;;0.60;;
29320;SDS011;16323;51.130;6.612;2023-04-24T07:28:27;0.60;;;0.50;;
29320;SDS011;16323;51.130;6.612;2023-04-24T07:30:56;1.52;;;0.40;;
29320;SDS011;16323;51.130;6.612;2023-04-24T07:33:23;1.48;;;0.60;;
29320;SDS011;16323;51.130;6.612;2023-04-24T07:35:50;2.30;;;0.45;;
29320;SDS011;16323;51.130;6.612;2023-04-24T07:38:17;1.30;;;0.38;;
29320;SDS011;16323;51.130;6.612;2023-04-24T07:40:47;0.70;;;0.47;;
29320;SDS011;16323;51.130;6.612;2023-04-24T07:43:14;0.28;;;0.20;;
29320;SDS011;16323;51.130;6.612;2023-04-24T07:45:41;0.30;;;0.30;;
29320;SDS011;16323;51.130;6.612;2023-04-24T07:48:08;0.30;;;0.30;;
29320;SDS011;16323;51.130;6.612;2023-04-24T07:50:35;0.30;;;0.30;;
29320;SDS011;16323;51.130;6.612;2023-04-24T07:53:02;1.70;;;0.40;;
29320;SDS011;16323;51.130;6.612;2023-04-24T07:55:29;0.32;;;0.30;;
29320;SDS011;16323;51.130;6.612;2023-04-24T07:57:57;0.20;;;0.20;;
29320;SDS011;16323;51.130;6.612;2023-04-24T08:00:24;0.85;;;0.40;;
29320;SDS011;16323;51.130;6.612;2023-04-24T08:02:51;0.43;;;0.30;;
29320;SDS011;16323;51.130;6.612;2023-04-24T08:05:18;0.95;;;0.30;;
29320;SDS011;16323;51.130;6.612;2023-04-24T08:07:45;0.10;;;0.10;;
29320;SDS011;16323;51.130;6.612;2023-04-24T08:10:13;0.30;;;0.30;;
29320;SDS011;16323;51.130;6.612;2023-04-24T08:12:41;0.50;;;0.32;;
29320;SDS011;16323;51.130;6.612;2023-04-24T08:15:09;0.95;;;0.60;;
29320;SDS011;16323;51.130;6.612;2023-04-24T08:17:36;0.40;;;0.38;;
29320;SDS011;16323;51.130;6.612;2023-04-24T08:20:03;0.30;;;0.30;;
29320;SDS011;16323;51.130;6.612;2023-04-24T08:22:35;1.13;;;0.47;;
29320;SDS011;16323;51.130;6.612;2023-04-24T08:25:02;0.50;;;0.40;;
29320;SDS011;16323;51.130;6.612;2023-04-24T08:27:29;0.75;;;0.38;;
29320;SDS011;16323;51.130;6.612;2023-04-24T08:29:56;0.63;;;0.50;;
29320;SDS011;16323;51.130;6.612;2023-04-24T08:32:25;0.32;;;0.32;;
29320;SDS011;16323;51.130;6.612;2023-04-24T08:34:53;0.55;;;0.47;;
29320;SDS011;16323;51.130;6.612;2023-04-24T08:37:21;0.88;;;0.55;;
29320;SDS011;16323;51.130;6.612;2023-04-24T08:39:48;1.33;;;0.40;;
29320;SDS011;16323;51.130;6.612;2023-04-24T08:42:15;0.68;;;0.40;;
29320;SDS011;16323;51.130;6.612;2023-04-24T08:44:43;0.75;;;0.40;;
29320;SDS011;16323;51.130;6.612;2023-04-24T08:47:11;0.82;;;0.57;;
29320;SDS011;16323;51.130;6.612;2023-04-24T08:49:39;0.52;;;0.40;;
29320;SDS011;16323;51.130;6.612;2023-04-24T08:52:06;0.77;;;0.60;;
29320;SDS011;16323;51.130;6.612;2023-04-24T08:54:33;0.75;;;0.47;;
29320;SDS011;16323;51.130;6.612;2023-04-24T08:57:01;0.65;;;0.52;;
29320;SDS011;16323;51.130;6.612;2023-04-24T08:59:29;0.80;;;0.60;;
29320;SDS011;16323;51.130;6.612;2023-04-24T09:01:57;0.30;;;0.30;;
29320;SDS011;16323;51.130;6.612;2023-04-24T09:04:24;0.73;;;0.50;;
29320;SDS011;16323;51.130;6.612;2023-04-24T09:06:53;1.17;;;0.80;;
29320;SDS011;16323;51.130;6.612;2023-04-24T09:09:23;0.60;;;0.60;;
29320;SDS011;16323;51.130;6.612;2023-04-24T09:11:50;1.00;;;0.55;;
29320;SDS011;16323;51.130;6.612;2023-04-24T09:14:20;12.93;;;1.13;;
29320;SDS011;16323;51.130;6.612;2023-04-24T09:16:48;16.45;;;1.20;;
29320;SDS011;16323;51.130;6.612;2023-04-24T09:19:15;8.10;;;1.00;;
29320;SDS011;16323;51.130;6.612;2023-04-24T09:21:42;1.67;;;0.80;;
29320;SDS011;16323;51.130;6.612;2023-04-24T09:24:16;2.75;;;0.75;;
29320;SDS011;16323;51.130;6.612;2023-04-24T09:26:45;6.60;;;1.02;;
29320;SDS011;16323;51.130;6.612;2023-04-24T09:29:13;2.13;;;0.60;;
29320;SDS011;16323;51.130;6.612;2023-04-24T09:31:41;2.47;;;0.70;;
29320;SDS011;16323;51.130;6.612;2023-04-24T09:34:09;1.48;;;0.70;;
29320;SDS011;16323;51.130;6.612;2023-04-24T09:36:36;2.22;;;0.55;;
29320;SDS011;16323;51.130;6.612;2023-04-24T09:39:04;1.48;;;0.68;;
29320;SDS011;16323;51.130;6.612;2023-04-24T09:41:34;1.90;;;0.90;;
29320;SDS011;16323;51.130;6.612;2023-04-24T09:44:10;1.83;;;0.63;;
29320;SDS011;16323;51.130;6.612;2023-04-24T09:46:38;2.75;;;0.80;;
29320;SDS011;16323;51.130;6.612;2023-04-24T09:49:08;1.80;;;0.70;;
29320;SDS011;16323;51.130;6.612;2023-04-24T09:51:36;0.95;;;0.70;;
29320;SDS011;16323;51.130;6.612;2023-04-24T09:54:04;1.35;;;0.68;;
29320;SDS011;16323;51.130;6.612;2023-04-24T09:56:39;0.70;;;0.60;;
29320;SDS011;16323;51.130;6.612;2023-04-24T09:59:09;4.07;;;1.05;;
29320;SDS011;16323;51.130;6.612;2023-04-24T10:01:36;1.05;;;0.70;;
29320;SDS011;16323;51.130;6.612;2023-04-24T10:04:03;0.90;;;0.60;;
29320;SDS011;16323;51.130;6.612;2023-04-24T10:06:32;0.70;;;0.65;;
29320;SDS011;16323;51.130;6.612;2023-04-24T10:09:00;1.05;;;0.68;;
29320;SDS011;16323;51.130;6.612;2023-04-24T10:11:27;1.27;;;0.70;;
29320;SDS011;16323;51.130;6.612;2023-04-24T10:13:55;2.13;;;0.85;;
29320;SDS011;16323;51.130;6.612;2023-04-24T10:16:23;2.00;;;0.68;;
29320;SDS011;16323;51.130;6.612;2023-04-24T10:18:52;1.95;;;0.90;;
29320;SDS011;16323;51.130;6.612;2023-04-24T10:21:19;1.58;;;1.02;;
29320;SDS011;16323;51.130;6.612;2023-04-24T10:23:46;1.63;;;0.90;;
29320;SDS011;16323;51.130;6.612;2023-04-24T10:26:15;1.02;;;0.60;;
29320;SDS011;16323;51.130;6.612;2023-04-24T10:28:44;2.58;;;0.82;;
29320;SDS011;16323;51.130;6.612;2023-04-24T10:31:13;1.48;;;0.70;;
29320;SDS011;16323;51.130;6.612;2023-04-24T10:33:41;1.27;;;0.70;;
29320;SDS011;16323;51.130;6.612;2023-04-24T10:36:09;3.83;;;0.93;;
29320;SDS011;16323;51.130;6.612;2023-04-24T10:38:37;0.80;;;0.55;;
29320;SDS011;16323;51.130;6.612;2023-04-24T10:41:07;1.02;;;0.60;;
29320;SDS011;16323;51.130;6.612;2023-04-24T10:43:34;2.05;;;0.82;;
29320;SDS011;16323;51.130;6.612;2023-04-24T10:46:01;2.38;;;0.68;;
29320;SDS011;16323;51.130;6.612;2023-04-24T10:48:30;0.95;;;0.68;;
29320;SDS011;16323;51.130;6.612;2023-04-24T10:50:58;1.23;;;0.65;;
29320;SDS011;16323;51.130;6.612;2023-04-24T10:53:27;3.15;;;1.00;;
29320;SDS011;16323;51.130;6.612;2023-04-24T10:55:57;1.90;;;0.68;;
29320;SDS011;16323;51.130;6.612;2023-04-24T10:58:35;1.52;;;0.70;;
29320;SDS011;16323;51.130;6.612;2023-04-24T11:01:03;2.00;;;0.85;;
29320;SDS011;16323;51.130;6.612;2023-04-24T11:03:33;2.03;;;0.70;;
29320;SDS011;16323;51.130;6.612;2023-04-24T11:06:01;1.85;;;0.60;;
29320;SDS011;16323;51.130;6.612;2023-04-24T11:08:30;1.40;;;0.77;;
29320;SDS011;16323;51.130;6.612;2023-04-24T11:11:02;1.02;;;0.52;;
29320;SDS011;16323;51.130;6.612;2023-04-24T11:14:00;2.00;;;0.77;;
29320;SDS011;16323;51.130;6.612;2023-04-24T11:16:29;1.08;;;0.70;;
29320;SDS011;16323;51.130;6.612;2023-04-24T11:19:02;1.65;;;0.80;;
29320;SDS011;16323;51.130;6.612;2023-04-24T11:21:31;2.00;;;0.70;;
29320;SDS011;16323;51.130;6.612;2023-04-24T11:26:57;2.97;;;0.93;;
29320;SDS011;16323;51.130;6.612;2023-04-24T11:32:26;1.80;;;0.80;;
29320;SDS011;16323;51.130;6.612;2023-04-24T11:34:55;16.52;;;1.45;;
29320;SDS011;16323;51.130;6.612;2023-04-24T11:37:23;6.68;;;1.08;;
29320;SDS011;16323;51.130;6.612;2023-04-24T11:39:53;3.60;;;0.90;;
29320;SDS011;16323;51.130;6.612;2023-04-24T11:42:21;3.05;;;0.77;;
29320;SDS011;16323;51.130;6.612;2023-04-24T11:44:49;2.00;;;0.88;;
29320;SDS011;16323;51.130;6.612;2023-04-24T11:47:16;2.88;;;0.90;;
29320;SDS011;16323;51.130;6.612;2023-04-24T11:49:42;1.73;;;0.73;;
29320;SDS011;16323;51.130;6.612;2023-04-24T11:52:11;6.10;;;0.90;;
29320;SDS011;16323;51.130;6.612;2023-04-24T11:54:46;5.78;;;0.90;;
29320;SDS011;16323;51.130;6.612;2023-04-24T11:57:14;1.45;;;0.70;;
29320;SDS011;16323;51.130;6.612;2023-04-24T11:59:40;4.35;;;1.05;;
29320;SDS011;16323;51.130;6.612;2023-04-24T12:02:08;3.22;;;0.68;;
29320;SDS011;16323;51.130;6.612;2023-04-24T12:04:38;1.95;;;0.95;;
29320;SDS011;16323;51.130;6.612;2023-04-24T12:07:06;2.00;;;0.90;;
29320;SDS011;16323;51.130;6.612;2023-04-24T12:09:45;3.42;;;1.13;;
29320;SDS011;16323;51.130;6.612;2023-04-24T12:12:15;2.00;;;0.68;;
29320;SDS011;16323;51.130;6.612;2023-04-24T12:14:43;3.75;;;0.63;;
29320;SDS011;16323;51.130;6.612;2023-04-24T12:17:11;1.88;;;0.70;;
29320;SDS011;16323;51.130;6.612;2023-04-24T12:19:37;1.88;;;0.85;;
29320;SDS011;16323;51.130;6.612;2023-04-24T12:22:10;1.05;;;0.65;;
29320;SDS011;16323;51.130;6.612;2023-04-24T12:27:24;2.70;;;0.88;;
29320;SDS011;16323;51.130;6.612;2023-04-24T12:29:52;2.25;;;0.88;;
29320;SDS011;16323;51.130;6.612;2023-04-24T12:32:19;2.25;;;1.08;;
29320;SDS011;16323;51.130;6.612;2023-04-24T12:34:46;2.15;;;0.82;;
29320;SDS011;16323;51.130;6.612;2023-04-24T12:37:13;1.00;;;0.60;;
29320;SDS011;16323;51.130;6.612;2023-04-24T12:39:42;1.75;;;0.75;;
29320;SDS011;16323;51.130;6.612;2023-04-24T12:42:26;1.60;;;0.70;;
29320;SDS011;16323;51.130;6.612;2023-04-24T12:44:56;1.45;;;0.80;;
29320;SDS011;16323;51.130;6.612;2023-04-24T12:47:25;3.60;;;0.80;;
29320;SDS011;16323;51.130;6.612;2023-04-24T12:49:52;1.88;;;0.70;;
29320;SDS011;16323;51.130;6.612;2023-04-24T12:52:20;1.33;;;0.68;;
29320;SDS011;16323;51.130;6.612;2023-04-24T12:54:47;1.05;;;0.50;;
29320;SDS011;16323;51.130;6.612;2023-04-24T12:57:14;1.75;;;0.60;;
29320;SDS011;16323;51.130;6.612;2023-04-24T12:59:42;3.03;;;0.93;;
29320;SDS011;16323;51.130;6.612;2023-04-24T13:02:09;1.48;;;0.60;;
29320;SDS011;16323;51.130;6.612;2023-04-24T13:04:36;1.42;;;0.77;;
29320;SDS011;16323;51.130;6.612;2023-04-24T13:07:03;1.63;;;0.60;;
29320;SDS011;16323;51.130;6.612;2023-04-24T13:09:31;0.75;;;0.57;;
29320;SDS011;16323;51.130;6.612;2023-04-24T13:11:58;1.92;;;0.65;;
29320;SDS011;16323;51.130;6.612;2023-04-24T13:14:25;1.45;;;0.70;;
29320;SDS011;16323;51.130;6.612;2023-04-24T13:16:53;2.63;;;0.60;;
29320;SDS011;16323;51.130;6.612;2023-04-24T13:19:20;1.90;;;0.90;;
29320;SDS011;16323;51.130;6.612;2023-04-24T13:21:47;1.20;;;0.60;;
29320;SDS011;16323;51.130;6.612;2023-04-24T13:24:14;1.63;;;0.88;;
29320;SDS011;16323;51.130;6.612;2023-04-24T13:26:41;0.95;;;0.63;;
29320;SDS011;16323;51.130;6.612;2023-04-24T13:29:07;2.45;;;0.70;;
29320;SDS011;16323;51.130;6.612;2023-04-24T13:31:34;2.70;;;0.65;;
29320;SDS011;16323;51.130;6.612;2023-04-24T13:34:02;1.58;;;0.52;;
29320;SDS011;16323;51.130;6.612;2023-04-24T13:36:29;3.45;;;0.70;;
29320;SDS011;16323;51.130;6.612;2023-04-24T13:38:56;1.42;;;0.68;;
29320;SDS011;16323;51.130;6.612;2023-04-24T13:41:23;1.08;;;0.57;;
29320;SDS011;16323;51.130;6.612;2023-04-24T13:43:50;0.93;;;0.60;;
29320;SDS011;16323;51.130;6.612;2023-04-24T13:46:17;1.88;;;0.60;;
29320;SDS011;16323;51.130;6.612;2023-04-24T13:48:44;1.10;;;0.57;;
29320;SDS011;16323;51.130;6.612;2023-04-24T13:51:12;2.85;;;0.63;;
29320;SDS011;16323;51.130;6.612;2023-04-24T13:53:39;1.20;;;0.60;;
29320;SDS011;16323;51.130;6.612;2023-04-24T13:56:06;0.98;;;0.47;;
29320;SDS011;16323;51.130;6.612;2023-04-24T13:58:35;1.52;;;0.60;;
29320;SDS011;16323;51.130;6.612;2023-04-24T14:01:02;0.82;;;0.60;;
29320;SDS011;16323;51.130;6.612;2023-04-24T14:03:30;4.95;;;0.60;;
29320;SDS011;16323;51.130;6.612;2023-04-24T14:05:56;1.17;;;0.50;;
29320;SDS011;16323;51.130;6.612;2023-04-24T14:08:25;0.70;;;0.50;;
29320;SDS011;16323;51.130;6.612;2023-04-24T14:10:51;1.85;;;0.75;;
29320;SDS011;16323;51.130;6.612;2023-04-24T14:13:18;1.13;;;0.60;;
29320;SDS011;16323;51.130;6.612;2023-04-24T14:15:46;1.42;;;0.70;;
29320;SDS011;16323;51.130;6.612;2023-04-24T14:18:13;1.75;;;0.60;;
29320;SDS011;16323;51.130;6.612;2023-04-24T14:20:39;1.23;;;0.60;;
29320;SDS011;16323;51.130;6.612;2023-04-24T14:23:06;1.42;;;0.70;;
29320;SDS011;16323;51.130;6.612;2023-04-24T14:25:34;1.25;;;0.60;;
29320;SDS011;16323;51.130;6.612;2023-04-24T14:28:01;0.90;;;0.52;;
29320;SDS011;16323;51.130;6.612;2023-04-24T14:30:28;3.03;;;0.82;;
29320;SDS011;16323;51.130;6.612;2023-04-24T14:32:55;1.30;;;0.50;;
29320;SDS011;16323;51.130;6.612;2023-04-24T14:35:22;2.13;;;0.65;;
29320;SDS011;16323;51.130;6.612;2023-04-24T14:37:49;1.75;;;0.50;;
29320;SDS011;16323;51.130;6.612;2023-04-24T14:40:16;1.95;;;0.60;;
29320;SDS011;16323;51.130;6.612;2023-04-24T14:42:44;0.95;;;0.55;;
29320;SDS011;16323;51.130;6.612;2023-04-24T14:45:11;1.65;;;0.60;;
29320;SDS011;16323;51.130;6.612;2023-04-24T14:47:37;0.50;;;0.47;;
29320;SDS011;16323;51.130;6.612;2023-04-24T14:50:05;0.68;;;0.50;;
29320;SDS011;16323;51.130;6.612;2023-04-24T14:52:33;1.45;;;0.50;;
29320;SDS011;16323;51.130;6.612;2023-04-24T14:55:00;0.93;;;0.60;;
29320;SDS011;16323;51.130;6.612;2023-04-24T14:57:27;1.38;;;0.55;;
29320;SDS011;16323;51.130;6.612;2023-04-24T14:59:55;1.35;;;0.50;;